createdAt,value
2023-03-20T00:01:14.103Z,9.43
2023-03-20T00:03:40.562Z,9.30
2023-03-20T00:06:12.683Z,13.05
2023-03-20T00:08:39.800Z,12.05
2023-03-20T00:11:06.174Z,11.93
2023-03-20T00:13:32.465Z,15.85
2023-03-20T00:15:58.820Z,11.05
2023-03-20T00:18:26.626Z,12.70
2023-03-20T00:20:53.670Z,15.63
2023-03-20T00:23:20.705Z,11.85
2023-03-20T00:25:47.279Z,19.23
2023-03-20T00:28:13.598Z,15.63
2023-03-20T00:30:39.946Z,13.25
2023-03-20T00:33:08.661Z,13.38
2023-03-20T00:35:35.266Z,13.85
2023-03-20T00:38:01.801Z,11.13
2023-03-20T00:40:31.874Z,9.95
2023-03-20T00:42:59.477Z,12.57
2023-03-20T00:45:26.067Z,9.65
2023-03-20T00:47:52.902Z,9.82
2023-03-20T00:50:21.985Z,13.77
2023-03-20T00:52:48.686Z,11.02
2023-03-20T00:55:15.433Z,9.07
2023-03-20T00:57:58.186Z,12.95
2023-03-20T01:00:26.644Z,8.98
2023-03-20T01:02:54.513Z,13.73
2023-03-20T01:05:21.000Z,10.20
2023-03-20T01:07:47.475Z,11.75
2023-03-20T01:10:14.019Z,11.18
2023-03-20T01:12:41.733Z,11.60
2023-03-20T01:15:30.789Z,12.48
2023-03-20T01:17:57.197Z,9.93
2023-03-20T01:20:25.580Z,12.98
2023-03-20T01:22:51.981Z,12.93
2023-03-20T01:25:18.423Z,11.55
2023-03-20T01:27:46.771Z,14.95
2023-03-20T01:30:21.707Z,12.18
2023-03-20T01:32:48.286Z,10.93
2023-03-20T01:35:19.850Z,12.35
2023-03-20T01:37:46.553Z,13.63
2023-03-20T01:40:17.005Z,7.82
2023-03-20T01:42:43.410Z,13.07
2023-03-20T01:45:14.738Z,11.30
2023-03-20T01:47:42.042Z,13.15
2023-03-20T01:50:17.467Z,14.50
2023-03-20T01:52:43.984Z,14.70
2023-03-20T01:55:10.437Z,14.80
2023-03-20T01:57:37.571Z,11.25
2023-03-20T02:00:06.448Z,12.15
2023-03-20T02:02:33.062Z,15.13
2023-03-20T02:05:01.926Z,9.48
2023-03-20T02:07:28.408Z,10.70
2023-03-20T02:09:54.794Z,13.40
2023-03-20T02:12:21.672Z,9.40
2023-03-20T02:14:48.390Z,11.82
2023-03-20T02:17:15.576Z,10.95
2023-03-20T02:20:01.120Z,13.23
2023-03-20T02:22:40.796Z,13.95
2023-03-20T02:25:07.180Z,11.40
2023-03-20T02:27:39.442Z,13.45
2023-03-20T02:30:25.743Z,14.07
2023-03-20T02:40:16.260Z,18.17
2023-03-20T02:43:05.910Z,13.75
2023-03-20T02:45:36.385Z,15.23
2023-03-20T02:48:29.443Z,11.38
2023-03-20T02:50:58.601Z,14.43
2023-03-20T02:53:44.177Z,13.40
2023-03-20T02:56:17.557Z,19.60
2023-03-20T02:59:10.124Z,15.00
2023-03-20T03:01:38.264Z,14.63
2023-03-20T03:04:08.812Z,15.40
2023-03-20T03:06:39.395Z,19.10
2023-03-20T03:09:05.749Z,13.20
2023-03-20T03:11:37.927Z,12.63
2023-03-20T03:14:05.148Z,12.98
2023-03-20T03:16:36.418Z,16.35
2023-03-20T03:19:10.941Z,12.43
2023-03-20T03:21:39.210Z,18.40
2023-03-20T03:24:05.732Z,19.55
2023-03-20T03:26:34.623Z,17.63
2023-03-20T03:29:03.836Z,16.48
2023-03-20T03:31:31.682Z,13.27
2023-03-20T03:33:59.027Z,12.50
2023-03-20T03:36:33.550Z,14.55
2023-03-20T03:38:59.953Z,13.45
2023-03-20T03:41:26.279Z,16.70
2023-03-20T03:44:02.326Z,15.15
2023-03-20T03:46:35.821Z,16.63
2023-03-20T03:49:02.732Z,14.07
2023-03-20T03:51:31.232Z,11.60
2023-03-20T03:54:00.211Z,13.52
2023-03-20T03:56:28.481Z,13.98
2023-03-20T03:58:57.796Z,17.83
2023-03-20T04:01:25.625Z,15.30
2023-03-20T04:03:58.323Z,15.07
2023-03-20T04:06:25.941Z,13.70
2023-03-20T04:08:52.279Z,14.32
2023-03-20T04:11:19.705Z,11.13
2023-03-20T04:13:47.508Z,13.35
2023-03-20T04:16:14.363Z,16.08
2023-03-20T04:18:40.992Z,13.63
2023-03-20T04:21:07.590Z,15.77
2023-03-20T04:23:34.018Z,13.85
2023-03-20T04:26:01.073Z,10.98
2023-03-20T04:28:27.915Z,13.35
2023-03-20T04:30:55.047Z,14.77
2023-03-20T04:33:21.941Z,15.50
2023-03-20T04:35:48.322Z,14.40
2023-03-20T04:38:14.855Z,9.80
2023-03-20T04:40:41.347Z,12.57
2023-03-20T04:43:07.670Z,16.48
2023-03-20T04:45:34.269Z,14.52
2023-03-20T04:48:01.003Z,15.90
2023-03-20T04:50:27.486Z,12.60
2023-03-20T04:52:53.987Z,11.50
2023-03-20T04:55:20.430Z,14.95
2023-03-20T04:57:46.988Z,11.57
2023-03-20T05:00:13.505Z,14.77
2023-03-20T05:02:39.952Z,12.00
2023-03-20T05:05:06.802Z,15.80
2023-03-20T05:07:33.313Z,12.73
2023-03-20T05:09:59.662Z,16.20
2023-03-20T05:12:27.188Z,14.38
2023-03-20T05:14:54.900Z,12.30
2023-03-20T05:17:24.169Z,15.02
2023-03-20T05:19:50.510Z,14.40
2023-03-20T05:22:17.585Z,18.00
2023-03-20T05:24:43.911Z,15.80
2023-03-20T05:27:10.418Z,14.75
2023-03-20T05:29:36.755Z,14.50
2023-03-20T05:32:03.229Z,14.50
2023-03-20T05:34:29.564Z,17.75
2023-03-20T05:36:55.952Z,19.58
2023-03-20T05:39:22.364Z,14.73
2023-03-20T05:41:48.788Z,17.27
2023-03-20T05:44:15.379Z,16.08
2023-03-20T05:46:42.109Z,16.92
2023-03-20T05:49:08.750Z,14.32
2023-03-20T05:51:36.591Z,14.85
2023-03-20T05:54:03.204Z,12.80
2023-03-20T05:56:29.617Z,14.63
2023-03-20T05:58:56.026Z,17.67
2023-03-20T06:01:22.438Z,13.77
2023-03-20T06:03:49.386Z,13.10
2023-03-20T06:06:16.479Z,13.32
2023-03-20T06:08:43.173Z,14.02
2023-03-20T06:11:10.444Z,16.95
2023-03-20T06:13:36.796Z,15.32
2023-03-20T06:16:03.459Z,14.65
2023-03-20T06:18:29.843Z,14.32
2023-03-20T06:20:57.011Z,15.43
2023-03-20T06:23:23.660Z,16.10
2023-03-20T06:25:50.073Z,15.77
2023-03-20T06:28:16.975Z,14.73
2023-03-20T06:30:43.929Z,18.92
2023-03-20T06:33:10.431Z,14.85
2023-03-20T06:35:37.096Z,15.00
2023-03-20T06:38:03.556Z,16.92
2023-03-20T06:40:30.058Z,9.70
2023-03-20T06:42:56.486Z,14.40
2023-03-20T06:45:23.019Z,11.57
2023-03-20T06:47:49.482Z,11.98
2023-03-20T06:50:16.163Z,14.85
2023-03-20T06:52:42.854Z,19.15
2023-03-20T06:55:09.532Z,12.27
2023-03-20T06:57:35.878Z,8.80
2023-03-20T07:00:04.423Z,7.43
2023-03-20T07:02:30.915Z,8.95
2023-03-20T07:04:57.372Z,14.20
2023-03-20T07:07:23.690Z,7.97
2023-03-20T07:09:50.305Z,13.07
2023-03-20T07:12:19.822Z,12.05
2023-03-20T07:14:46.539Z,16.35
2023-03-20T07:17:13.249Z,20.30
2023-03-20T07:19:39.689Z,12.88
2023-03-20T07:22:07.834Z,13.27
2023-03-20T07:24:34.480Z,16.40
2023-03-20T07:27:01.298Z,14.50
2023-03-20T07:29:27.733Z,12.20
2023-03-20T07:31:54.281Z,19.35
2023-03-20T07:34:20.762Z,12.32
2023-03-20T07:36:47.094Z,16.80
2023-03-20T07:39:13.746Z,12.07
2023-03-20T07:41:40.249Z,10.43
2023-03-20T07:44:08.290Z,7.25
2023-03-20T07:46:34.632Z,15.75
2023-03-20T07:49:01.015Z,11.25
2023-03-20T07:51:27.338Z,11.70
2023-03-20T07:53:53.625Z,9.90
2023-03-20T07:56:20.040Z,12.27
2023-03-20T07:58:46.361Z,6.40
2023-03-20T08:01:12.670Z,10.13
2023-03-20T08:03:39.570Z,10.07
2023-03-20T08:06:08.431Z,15.20
2023-03-20T08:08:35.288Z,13.23
2023-03-20T08:11:01.848Z,14.45
2023-03-20T08:13:28.273Z,11.77
2023-03-20T08:15:54.670Z,18.50
2023-03-20T08:18:22.408Z,8.38
2023-03-20T08:20:50.282Z,13.65
2023-03-20T08:23:20.097Z,8.95
2023-03-20T08:25:50.464Z,11.15
2023-03-20T08:28:17.188Z,12.25
2023-03-20T08:30:43.558Z,14.20
2023-03-20T08:33:10.213Z,7.68
2023-03-20T08:35:36.996Z,12.32
2023-03-20T08:38:03.588Z,10.02
2023-03-20T08:40:30.115Z,11.38
2023-03-20T08:42:56.659Z,11.02
2023-03-20T08:45:26.116Z,10.73
2023-03-20T08:47:52.735Z,10.20
2023-03-20T08:50:19.258Z,13.38
2023-03-20T08:52:46.943Z,15.32
2023-03-20T08:55:14.267Z,16.38
2023-03-20T08:57:41.242Z,10.85
2023-03-20T09:00:08.257Z,14.50
2023-03-20T09:02:34.928Z,7.88
2023-03-20T09:05:01.518Z,7.40
2023-03-20T09:07:27.894Z,14.82
2023-03-20T09:09:54.247Z,14.98
2023-03-20T09:12:20.656Z,13.57
2023-03-20T09:14:47.000Z,13.63
2023-03-20T09:17:13.338Z,13.02
2023-03-20T09:19:42.574Z,13.23
2023-03-20T09:22:09.318Z,11.90
2023-03-20T09:24:35.775Z,9.02
2023-03-20T09:27:03.684Z,11.05
2023-03-20T09:29:30.294Z,11.65
2023-03-20T09:31:56.691Z,13.25
2023-03-20T09:34:24.177Z,15.70
2023-03-20T09:36:50.529Z,13.07
2023-03-20T09:39:16.856Z,14.18
2023-03-20T09:41:56.577Z,7.35
2023-03-20T09:44:49.722Z,14.48
2023-03-20T09:47:20.749Z,14.15
2023-03-20T09:50:06.360Z,12.73
2023-03-20T09:52:34.916Z,13.98
2023-03-20T09:55:04.151Z,15.32
2023-03-20T09:57:41.366Z,10.73
2023-03-20T10:00:16.747Z,14.15
2023-03-20T10:02:46.046Z,8.48
2023-03-20T10:05:16.969Z,10.48
2023-03-20T10:07:43.380Z,15.38
2023-03-20T10:10:13.241Z,8.98
2023-03-20T10:12:48.621Z,12.60
2023-03-20T10:15:41.372Z,15.52
2023-03-20T10:18:16.675Z,9.82
2023-03-20T10:20:50.724Z,11.75
2023-03-20T10:23:24.644Z,15.20
2023-03-20T10:25:53.288Z,14.13
2023-03-20T10:28:22.619Z,11.55
2023-03-20T10:30:54.934Z,13.82
2023-03-20T10:33:30.127Z,13.95
2023-03-20T10:36:15.396Z,18.25
2023-03-20T10:38:44.982Z,11.80
2023-03-20T10:41:19.508Z,17.17
2023-03-20T10:43:47.216Z,16.13
2023-03-20T10:46:25.413Z,14.98
2023-03-20T10:48:51.826Z,14.10
2023-03-20T10:51:20.329Z,9.55
2023-03-20T10:53:53.854Z,12.30
2023-03-20T10:56:26.450Z,14.15
2023-03-20T10:58:59.485Z,12.27
2023-03-20T11:01:26.156Z,12.20
2023-03-20T11:03:52.730Z,15.15
2023-03-20T11:06:22.302Z,16.77
2023-03-20T11:08:50.957Z,13.00
2023-03-20T11:11:28.142Z,10.35
2023-03-20T11:13:54.980Z,14.15
2023-03-20T11:16:33.012Z,17.83
2023-03-20T11:19:06.006Z,14.23
2023-03-20T11:21:32.634Z,9.77
2023-03-20T11:23:59.150Z,13.63
2023-03-20T11:26:28.373Z,15.15
2023-03-20T11:28:58.908Z,16.08
2023-03-20T11:31:25.977Z,12.48
2023-03-20T11:34:00.286Z,11.57
2023-03-20T11:36:30.535Z,12.57
2023-03-20T11:39:08.199Z,11.20
2023-03-20T11:41:35.046Z,12.20
2023-03-20T11:44:01.434Z,15.65
2023-03-20T11:46:28.034Z,16.00
2023-03-20T11:49:06.098Z,12.15
2023-03-20T11:51:35.350Z,12.00
2023-03-20T11:54:03.777Z,15.98
2023-03-20T11:56:32.733Z,12.20
2023-03-20T11:59:03.694Z,11.35
2023-03-20T12:01:46.780Z,9.52
2023-03-20T12:04:33.326Z,8.27
2023-03-20T12:07:03.767Z,15.10
2023-03-20T12:09:48.031Z,9.68
2023-03-20T12:12:20.218Z,9.93
2023-03-20T12:14:52.335Z,7.53
2023-03-20T12:17:28.024Z,8.55
2023-03-20T12:19:56.674Z,7.20
2023-03-20T12:22:25.792Z,5.85
2023-03-20T12:24:58.055Z,8.82
2023-03-20T12:27:27.753Z,9.68
2023-03-20T12:30:12.731Z,5.95
2023-03-20T12:32:57.871Z,8.52
2023-03-20T12:35:31.871Z,5.63
2023-03-20T12:37:58.896Z,4.95
2023-03-20T12:40:34.777Z,3.58
2023-03-20T12:43:05.534Z,4.95
2023-03-20T12:45:38.570Z,4.88
2023-03-20T12:48:16.930Z,6.85
2023-03-20T12:50:47.889Z,5.43
2023-03-20T12:53:14.207Z,7.93
2023-03-20T12:55:49.425Z,4.78
2023-03-20T12:58:18.564Z,4.93
2023-03-20T13:00:49.661Z,4.10
2023-03-20T13:03:31.214Z,3.80
2023-03-20T13:06:00.875Z,7.10
2023-03-20T13:08:27.663Z,2.55
2023-03-20T13:10:57.268Z,5.35
2023-03-20T13:13:30.984Z,5.30
2023-03-20T13:16:09.362Z,3.72
2023-03-20T13:18:54.430Z,4.15
2023-03-20T13:21:42.368Z,3.50
2023-03-20T13:24:10.937Z,4.13
2023-03-20T13:26:42.710Z,3.92
2023-03-20T13:29:15.571Z,4.60
2023-03-20T13:32:04.924Z,3.15
2023-03-20T13:34:52.861Z,3.05
2023-03-20T13:37:28.595Z,4.30
2023-03-20T13:39:57.737Z,4.35
2023-03-20T13:42:28.731Z,3.20
2023-03-20T13:44:57.563Z,5.45
2023-03-20T13:47:24.866Z,5.85
2023-03-20T13:49:54.322Z,3.70
2023-03-20T13:52:22.433Z,4.95
2023-03-20T13:54:59.237Z,4.18
2023-03-20T13:57:28.403Z,6.68
2023-03-20T13:59:57.553Z,5.38
2023-03-20T14:02:23.828Z,8.35
2023-03-20T14:04:51.894Z,5.35
2023-03-20T14:07:28.638Z,8.40
2023-03-20T14:09:55.902Z,7.13
2023-03-20T14:12:25.220Z,9.60
2023-03-20T14:14:58.641Z,5.60
2023-03-20T14:17:26.051Z,5.93
2023-03-20T14:19:52.934Z,7.90
2023-03-20T14:22:33.978Z,8.40
2023-03-20T14:25:04.432Z,7.55
2023-03-20T14:27:43.764Z,8.73
2023-03-20T14:30:26.176Z,8.68
2023-03-20T14:32:57.969Z,8.38
2023-03-20T14:35:28.034Z,9.05
2023-03-20T14:38:13.380Z,7.78
2023-03-20T14:40:47.427Z,6.50
2023-03-20T14:43:38.298Z,3.75
2023-03-20T14:46:17.106Z,6.65
2023-03-20T14:48:48.513Z,6.70
2023-03-20T14:51:21.171Z,3.33
2023-03-20T14:53:56.824Z,5.20
2023-03-20T14:56:29.230Z,4.50
2023-03-20T14:58:56.794Z,4.88
2023-03-20T15:01:44.565Z,6.32
2023-03-20T15:04:22.972Z,6.07
2023-03-20T15:06:56.506Z,4.55
2023-03-20T15:09:24.304Z,7.32
2023-03-20T15:11:52.222Z,6.82
2023-03-20T15:14:29.306Z,5.00
2023-03-20T15:16:59.407Z,7.05
2023-03-20T15:19:25.869Z,8.05
2023-03-20T15:21:53.617Z,6.15
2023-03-20T15:24:23.436Z,12.82
2023-03-20T15:26:54.549Z,13.80
2023-03-20T15:29:21.904Z,11.73
2023-03-20T15:32:06.525Z,10.65
2023-03-20T15:34:39.237Z,12.55
2023-03-20T15:37:07.149Z,11.98
2023-03-20T15:39:41.893Z,13.70
2023-03-20T15:42:12.159Z,6.80
2023-03-20T15:44:39.695Z,13.38
2023-03-20T15:47:13.966Z,10.30
2023-03-20T15:49:41.458Z,14.75
2023-03-20T15:52:27.302Z,13.63
2023-03-20T15:54:54.555Z,7.97
2023-03-20T15:57:25.890Z,11.18
2023-03-20T15:59:52.636Z,10.88
2023-03-20T16:02:19.302Z,9.57
2023-03-20T16:04:47.484Z,12.05
2023-03-20T16:07:26.532Z,11.15
2023-03-20T16:09:52.918Z,12.73
2023-03-20T16:12:19.732Z,14.70
2023-03-20T16:14:47.410Z,13.43
2023-03-20T16:17:14.555Z,12.10
2023-03-20T16:19:41.190Z,7.32
2023-03-20T16:22:16.485Z,14.18
2023-03-20T16:24:45.581Z,11.43
2023-03-20T16:27:14.718Z,14.35
2023-03-20T16:29:43.129Z,16.50
2023-03-20T16:32:28.807Z,13.18
2023-03-20T16:34:56.848Z,11.68
2023-03-20T16:37:25.858Z,12.23
2023-03-20T16:40:10.832Z,16.00
2023-03-20T16:42:37.415Z,13.15
2023-03-20T16:45:04.546Z,11.43
2023-03-20T16:47:34.679Z,12.57
2023-03-20T16:50:20.789Z,11.73
2023-03-20T16:52:51.860Z,14.60
2023-03-20T16:55:22.402Z,12.98
2023-03-20T16:57:50.245Z,12.63
2023-03-20T17:00:19.789Z,10.93
2023-03-20T17:02:49.718Z,14.75
2023-03-20T17:05:18.911Z,10.98
2023-03-20T17:07:49.154Z,9.57
2023-03-20T17:10:18.662Z,9.15
2023-03-20T17:12:46.762Z,9.55
2023-03-20T17:15:20.680Z,10.43
2023-03-20T17:17:47.359Z,10.82
2023-03-20T17:20:24.311Z,6.18
2023-03-20T17:22:51.258Z,11.98
2023-03-20T17:25:17.755Z,10.73
2023-03-20T17:27:44.411Z,10.52
2023-03-20T17:30:17.553Z,5.55
2023-03-20T17:32:44.001Z,7.72
2023-03-20T17:35:10.556Z,9.93
2023-03-20T17:37:37.372Z,7.78
2023-03-20T17:40:04.522Z,10.65
2023-03-20T17:42:31.664Z,4.93
2023-03-20T17:44:58.765Z,5.60
2023-03-20T17:47:26.622Z,3.33
2023-03-20T17:49:54.587Z,5.88
2023-03-20T17:52:22.403Z,2.92
2023-03-20T17:54:49.099Z,5.50
2023-03-20T17:57:20.771Z,6.05
2023-03-20T17:59:49.923Z,5.75
2023-03-20T18:02:18.279Z,1.95
2023-03-20T18:04:48.206Z,3.58
2023-03-20T18:07:15.616Z,5.00
2023-03-20T18:09:42.157Z,3.53
2023-03-20T18:12:15.370Z,3.95
2023-03-20T18:14:42.198Z,2.67
2023-03-20T18:17:08.580Z,3.72
2023-03-20T18:19:34.962Z,3.88
2023-03-20T18:22:01.376Z,2.55
2023-03-20T18:24:27.836Z,4.35
2023-03-20T18:26:54.580Z,1.73
2023-03-20T18:29:21.283Z,1.58
2023-03-20T18:31:49.031Z,2.15
2023-03-20T18:34:16.242Z,1.83
2023-03-20T18:36:43.800Z,2.22
2023-03-20T18:39:15.751Z,1.88
2023-03-20T18:41:42.122Z,3.17
2023-03-20T18:44:08.524Z,2.30
2023-03-20T18:46:34.933Z,1.25
2023-03-20T18:49:01.291Z,2.55
2023-03-20T18:51:27.767Z,1.30
2023-03-20T18:53:54.255Z,2.85
2023-03-20T18:56:23.075Z,0.88
2023-03-20T18:58:49.872Z,1.10
2023-03-20T19:01:16.446Z,2.90
2023-03-20T19:03:43.320Z,1.95
2023-03-20T19:06:23.173Z,1.63
2023-03-20T19:08:50.444Z,2.17
2023-03-20T19:11:20.574Z,3.17
2023-03-20T19:13:49.667Z,3.42
2023-03-20T19:16:20.416Z,2.47
2023-03-20T19:18:46.958Z,2.50
2023-03-20T19:21:13.369Z,1.10
2023-03-20T19:23:39.757Z,3.75
2023-03-20T19:26:06.453Z,1.55
2023-03-20T19:28:40.563Z,1.42
2023-03-20T19:31:09.485Z,3.97
2023-03-20T19:33:36.220Z,1.92
2023-03-20T19:36:04.497Z,2.28
2023-03-20T19:38:31.412Z,1.20
2023-03-20T19:40:59.236Z,1.80
2023-03-20T19:43:25.802Z,1.10
2023-03-20T19:45:58.040Z,2.22
2023-03-20T19:48:46.773Z,1.67
2023-03-20T19:51:17.197Z,1.13
2023-03-20T19:53:43.809Z,1.63
2023-03-20T19:56:11.764Z,1.42
2023-03-20T19:58:39.102Z,1.85
2023-03-20T20:01:14.809Z,1.00
2023-03-20T20:03:41.936Z,3.53
2023-03-20T20:06:08.343Z,1.05
2023-03-20T20:08:46.835Z,1.85
2023-03-20T20:11:15.436Z,1.48
2023-03-20T20:14:03.765Z,1.85
2023-03-20T20:16:28.555Z,2.10
2023-03-20T20:18:55.093Z,4.88
2023-03-20T20:29:06.916Z,2.15
2023-03-20T20:31:33.278Z,2.00
2023-03-20T20:34:45.292Z,1.85
2023-03-20T20:39:32.580Z,2.92
2023-03-20T20:41:58.986Z,2.10
2023-03-20T20:44:25.312Z,3.17
2023-03-20T20:46:51.835Z,1.80
2023-03-20T20:49:20.041Z,2.50
2023-03-20T20:51:47.143Z,1.98
2023-03-20T20:54:14.172Z,3.47
2023-03-20T20:56:40.922Z,1.92
2023-03-20T20:59:07.850Z,3.95
2023-03-20T21:01:34.407Z,1.42
2023-03-20T21:04:01.296Z,2.10
2023-03-20T21:06:54.156Z,4.20
2023-03-20T21:09:14.129Z,2.88
2023-03-20T21:11:40.494Z,4.18
2023-03-20T21:14:06.841Z,1.92
2023-03-20T21:16:33.288Z,3.17
2023-03-20T21:18:59.657Z,2.60
2023-03-20T21:21:26.001Z,2.85
2023-03-20T21:23:52.398Z,1.63
2023-03-20T21:26:18.747Z,7.22
2023-03-20T21:28:45.172Z,2.42
2023-03-20T21:31:24.422Z,3.42
2023-03-20T21:33:54.056Z,3.22
2023-03-20T21:36:20.992Z,3.17
2023-03-20T21:39:06.790Z,4.00
2023-03-20T21:41:34.553Z,4.65
2023-03-20T21:44:01.566Z,3.33
2023-03-20T22:03:11.569Z,3.53
2023-03-20T22:14:58.574Z,3.08
2023-03-20T22:20:35.380Z,2.60
2023-03-20T22:25:49.714Z,3.58
2023-03-20T22:28:33.312Z,4.32
2023-03-20T22:31:26.811Z,5.22
2023-03-20T22:39:40.869Z,5.47
2023-03-20T22:42:28.736Z,4.53
2023-03-20T22:47:21.859Z,2.28
2023-03-20T22:49:48.411Z,3.97
2023-03-20T22:52:27.119Z,4.88
2023-03-20T22:57:40.233Z,6.22
2023-03-20T23:00:10.777Z,6.55
2023-03-20T23:02:37.675Z,4.75
2023-03-20T23:05:04.411Z,6.60
2023-03-20T23:07:31.032Z,4.05
2023-03-20T23:09:58.184Z,3.92
2023-03-20T23:12:24.556Z,5.95
2023-03-20T23:14:50.883Z,5.65
2023-03-20T23:17:17.193Z,7.45
2023-03-20T23:19:50.534Z,7.80
2023-03-20T23:22:20.432Z,4.90
2023-03-20T23:24:46.841Z,5.70
2023-03-20T23:27:13.409Z,12.65
2023-03-20T23:29:39.947Z,6.80
2023-03-20T23:32:06.545Z,6.53
2023-03-20T23:34:32.904Z,7.25
2023-03-20T23:36:59.321Z,6.13
2023-03-20T23:39:25.970Z,6.03
2023-03-20T23:42:12.114Z,7.97
2023-03-20T23:47:20.172Z,5.65
2023-03-20T23:49:47.854Z,6.28
2023-03-20T23:52:14.315Z,8.10
2023-03-20T23:54:40.889Z,7.90
2023-03-20T23:57:07.327Z,6.75
2023-03-20T23:59:33.697Z,9.40
